createdAt,value
2017-12-08T00:00:18.235Z,19.87
2017-12-08T00:00:52.152Z,17.35
2017-12-08T00:01:26.396Z,22.25
2017-12-08T00:02:00.336Z,20.00
2017-12-08T00:02:34.285Z,20.02
2017-12-08T00:03:08.234Z,20.65
2017-12-08T00:03:42.141Z,19.65
2017-12-08T00:04:16.284Z,17.40
2017-12-08T00:04:50.277Z,18.73
2017-12-08T00:05:24.274Z,21.92
2017-12-08T00:05:58.227Z,19.25
2017-12-08T00:06:32.332Z,20.25
2017-12-08T00:07:06.509Z,19.92
2017-12-08T00:07:40.466Z,19.00
2017-12-08T00:08:14.505Z,19.23
2017-12-08T00:08:48.420Z,22.02
2017-12-08T00:09:22.293Z,18.33
2017-12-08T00:09:56.270Z,17.05
2017-12-08T00:10:30.351Z,22.30
2017-12-08T00:11:04.336Z,20.10
2017-12-08T00:11:38.267Z,19.17
2017-12-08T00:12:12.259Z,17.20
2017-12-08T00:12:46.207Z,21.02
2017-12-08T00:13:20.080Z,19.15
2017-12-08T00:13:53.967Z,16.15
2017-12-08T00:14:28.144Z,21.48
2017-12-08T00:15:02.101Z,16.80
2017-12-08T00:15:36.096Z,21.60
2017-12-08T00:16:10.003Z,16.85
2017-12-08T00:16:44.032Z,19.80
2017-12-08T00:17:17.929Z,19.50
2017-12-08T00:17:52.134Z,18.83
2017-12-08T00:18:26.248Z,17.55
2017-12-08T00:19:00.195Z,18.80
2017-12-08T00:19:34.305Z,20.08
2017-12-08T00:20:08.158Z,19.80
2017-12-08T00:20:42.141Z,20.45
2017-12-08T00:21:16.112Z,20.33
2017-12-08T00:21:49.986Z,16.98
2017-12-08T00:22:23.841Z,18.90
2017-12-08T00:22:57.762Z,20.62
2017-12-08T00:23:31.757Z,18.15
2017-12-08T00:24:05.696Z,19.80
2017-12-08T00:24:39.763Z,19.50
2017-12-08T00:25:13.765Z,17.35
2017-12-08T00:25:47.720Z,18.58
2017-12-08T00:26:22.125Z,18.20
2017-12-08T00:26:56.207Z,20.15
2017-12-08T00:27:30.447Z,20.35
2017-12-08T00:28:05.156Z,17.15
2017-12-08T00:28:39.269Z,18.70
2017-12-08T00:29:13.297Z,18.10
2017-12-08T00:29:47.771Z,20.27
2017-12-08T00:30:23.616Z,22.60
2017-12-08T00:30:57.629Z,16.98
2017-12-08T00:31:31.702Z,22.65
2017-12-08T00:32:05.751Z,17.87
2017-12-08T00:32:39.947Z,18.90
2017-12-08T00:33:14.082Z,18.55
2017-12-08T00:33:48.075Z,20.60
2017-12-08T00:34:22.049Z,21.67
2017-12-08T00:34:55.980Z,19.35
2017-12-08T00:35:29.917Z,20.15
2017-12-08T00:36:04.468Z,25.92
2017-12-08T00:36:38.423Z,21.37
2017-12-08T00:37:12.522Z,19.60
2017-12-08T00:37:46.873Z,19.50
2017-12-08T00:38:20.980Z,19.60
2017-12-08T00:38:55.400Z,22.33
2017-12-08T00:39:29.252Z,20.10
2017-12-08T00:40:03.330Z,18.40
2017-12-08T00:40:37.204Z,17.55
2017-12-08T00:41:11.152Z,18.00
2017-12-08T00:41:45.242Z,18.80
2017-12-08T00:42:19.353Z,17.92
2017-12-08T00:42:53.314Z,20.30
2017-12-08T00:43:27.352Z,20.90
2017-12-08T00:44:01.550Z,17.52
2017-12-08T00:44:35.440Z,18.83
2017-12-08T00:45:09.996Z,21.95
2017-12-08T00:45:44.358Z,16.70
2017-12-08T00:46:18.366Z,20.05
2017-12-08T00:46:52.315Z,17.60
2017-12-08T00:47:26.608Z,19.17
2017-12-08T00:48:00.624Z,17.17
2017-12-08T00:48:34.778Z,16.27
2017-12-08T00:49:08.675Z,18.80
2017-12-08T00:49:42.558Z,17.48
2017-12-08T00:50:16.420Z,18.65
2017-12-08T00:50:50.445Z,19.35
2017-12-08T00:51:24.681Z,21.23
2017-12-08T00:51:58.566Z,16.40
2017-12-08T00:52:32.582Z,17.35
2017-12-08T00:53:07.289Z,20.10
2017-12-08T00:53:41.185Z,19.87
2017-12-08T00:54:15.082Z,15.73
2017-12-08T00:54:48.961Z,22.15
2017-12-08T00:55:22.842Z,17.85
2017-12-08T00:55:56.846Z,17.40
2017-12-08T00:56:30.992Z,18.58
2017-12-08T00:57:05.029Z,20.67
2017-12-08T00:57:38.983Z,17.45
2017-12-08T00:58:13.081Z,19.35
2017-12-08T00:58:47.084Z,18.23
2017-12-08T00:59:21.095Z,19.80
2017-12-08T00:59:55.198Z,17.42
2017-12-08T01:00:29.096Z,19.60
2017-12-08T01:01:03.024Z,18.33
2017-12-08T01:01:36.928Z,18.60
2017-12-08T01:02:10.797Z,16.90
2017-12-08T01:02:44.717Z,19.33
2017-12-08T01:03:19.089Z,16.87
2017-12-08T01:03:52.990Z,17.75
2017-12-08T01:04:26.967Z,18.90
2017-12-08T01:05:00.939Z,20.23
2017-12-08T01:05:34.825Z,17.83
2017-12-08T01:06:08.700Z,16.87
2017-12-08T01:06:42.583Z,16.35
2017-12-08T01:07:16.696Z,19.85
2017-12-08T01:07:50.597Z,14.95
2017-12-08T01:08:24.570Z,17.30
2017-12-08T01:08:58.481Z,18.35
2017-12-08T01:09:32.584Z,16.37
2017-12-08T01:10:06.471Z,16.80
2017-12-08T01:10:40.317Z,15.10
2017-12-08T01:11:14.350Z,14.98
2017-12-08T01:11:48.247Z,18.80
2017-12-08T01:12:22.121Z,17.25
2017-12-08T01:12:55.995Z,18.52
2017-12-08T01:13:29.895Z,17.25
2017-12-08T01:14:03.928Z,17.45
2017-12-08T01:14:37.791Z,15.55
2017-12-08T01:15:11.690Z,14.25
2017-12-08T01:15:45.577Z,16.73
2017-12-08T01:16:19.524Z,16.55
2017-12-08T01:16:53.404Z,18.05
2017-12-08T01:17:27.302Z,16.62
2017-12-08T01:18:01.209Z,18.77
2017-12-08T01:18:35.129Z,15.98
2017-12-08T01:19:09.081Z,16.95
2017-12-08T01:19:43.079Z,17.05
2017-12-08T01:20:17.096Z,14.75
2017-12-08T01:20:51.055Z,19.92
2017-12-08T01:21:24.981Z,16.62
2017-12-08T01:21:58.869Z,15.50
2017-12-08T01:22:33.277Z,18.77
2017-12-08T01:23:07.171Z,16.52
2017-12-08T01:23:41.184Z,17.00
2017-12-08T01:24:15.319Z,16.15
2017-12-08T01:24:49.381Z,20.05
2017-12-08T01:25:23.382Z,15.65
2017-12-08T01:25:57.338Z,18.05
2017-12-08T01:26:31.312Z,16.45
2017-12-08T01:27:05.376Z,15.20
2017-12-08T01:27:39.309Z,15.45
2017-12-08T01:28:13.236Z,15.52
2017-12-08T01:28:47.759Z,17.83
2017-12-08T01:29:21.748Z,14.02
2017-12-08T01:29:55.817Z,19.00
2017-12-08T01:30:29.781Z,15.55
2017-12-08T01:31:03.909Z,15.48
2017-12-08T01:31:38.099Z,16.67
2017-12-08T01:32:12.089Z,17.33
2017-12-08T01:32:46.014Z,14.85
2017-12-08T01:33:19.945Z,15.80
2017-12-08T01:33:54.864Z,15.43
2017-12-08T01:35:13.762Z,17.58
2017-12-08T01:35:47.761Z,16.85
2017-12-08T01:36:21.834Z,14.90
2017-12-08T01:36:56.004Z,14.35
2017-12-08T01:37:29.906Z,12.40
2017-12-08T01:38:04.953Z,14.98
2017-12-08T01:38:38.949Z,15.05
2017-12-08T01:39:12.972Z,12.57
2017-12-08T01:39:47.079Z,18.87
2017-12-08T01:40:21.224Z,14.50
2017-12-08T01:40:56.103Z,14.27
2017-12-08T01:41:30.049Z,14.15
2017-12-08T01:42:04.018Z,14.15
2017-12-08T01:42:38.853Z,15.00
2017-12-08T01:43:12.872Z,11.90
2017-12-08T01:43:46.847Z,15.40
2017-12-08T01:44:21.076Z,13.05
2017-12-08T01:44:55.913Z,14.10
2017-12-08T01:45:29.930Z,13.40
2017-12-08T01:46:10.421Z,15.85
2017-12-08T01:46:44.489Z,13.93
2017-12-08T01:47:18.560Z,14.18
2017-12-08T01:47:59.918Z,14.05
2017-12-08T01:48:34.311Z,13.57
2017-12-08T01:49:15.793Z,12.45
2017-12-08T01:49:49.656Z,16.87
2017-12-08T01:50:23.679Z,13.32
2017-12-08T01:50:58.032Z,13.40
2017-12-08T01:51:31.989Z,11.63
2017-12-08T01:52:06.045Z,15.07
2017-12-08T01:52:40.129Z,12.48
2017-12-08T01:53:14.142Z,13.38
2017-12-08T01:53:48.049Z,14.65
2017-12-08T01:54:22.178Z,13.57
2017-12-08T01:54:56.807Z,13.95
2017-12-08T01:55:32.136Z,13.88
2017-12-08T01:56:06.057Z,13.43
2017-12-08T01:56:40.322Z,13.62
2017-12-08T01:57:14.315Z,15.15
2017-12-08T01:57:48.420Z,12.63
2017-12-08T01:58:22.437Z,16.73
2017-12-08T01:58:56.414Z,12.35
2017-12-08T01:59:30.367Z,12.68
2017-12-08T02:00:06.284Z,11.10
2017-12-08T02:00:40.184Z,9.60
2017-12-08T02:01:14.147Z,11.35
2017-12-08T02:01:48.099Z,15.05
2017-12-08T02:02:22.241Z,11.95
2017-12-08T02:02:56.189Z,14.87
2017-12-08T02:03:30.066Z,12.25
2017-12-08T02:04:03.964Z,9.30
2017-12-08T02:04:37.964Z,12.05
2017-12-08T02:05:11.911Z,10.65
2017-12-08T02:05:45.804Z,12.80
2017-12-08T02:06:19.711Z,12.70
2017-12-08T02:06:53.634Z,12.95
2017-12-08T02:07:34.272Z,11.30
2017-12-08T02:08:08.205Z,11.82
2017-12-08T02:08:42.076Z,13.05
2017-12-08T02:09:16.013Z,12.35
2017-12-08T02:09:50.045Z,9.07
2017-12-08T02:10:24.044Z,11.15
2017-12-08T02:10:58.043Z,10.45
2017-12-08T02:11:31.937Z,12.60
2017-12-08T02:12:05.798Z,10.13
2017-12-08T02:12:39.805Z,11.77
2017-12-08T02:13:14.527Z,10.75
2017-12-08T02:13:48.523Z,11.73
2017-12-08T02:14:22.506Z,9.15
2017-12-08T02:14:56.668Z,10.27
2017-12-08T02:15:30.626Z,10.77
2017-12-08T02:16:04.737Z,10.25
2017-12-08T02:16:38.773Z,9.57
2017-12-08T02:17:12.873Z,10.65
2017-12-08T02:17:47.118Z,8.73
2017-12-08T02:18:21.980Z,10.68
2017-12-08T02:18:56.018Z,10.70
2017-12-08T02:19:30.259Z,8.85
2017-12-08T02:20:04.258Z,11.10
2017-12-08T02:20:38.156Z,9.90
2017-12-08T02:21:12.210Z,9.75
2017-12-08T02:21:46.192Z,10.60
2017-12-08T02:22:20.942Z,9.27
2017-12-08T02:22:54.935Z,10.73
2017-12-08T02:23:28.940Z,10.88
2017-12-08T02:24:02.871Z,10.98
2017-12-08T02:24:36.830Z,11.70
2017-12-08T02:25:10.794Z,9.57
2017-12-08T02:25:48.350Z,9.48
2017-12-08T02:26:24.161Z,10.77
2017-12-08T02:27:04.237Z,10.40
2017-12-08T02:27:38.152Z,8.13
2017-12-08T02:28:12.421Z,9.38
2017-12-08T02:28:47.242Z,11.45
2017-12-08T02:29:21.136Z,9.00
2017-12-08T02:29:55.237Z,9.43
2017-12-08T02:30:29.185Z,8.13
2017-12-08T02:31:03.978Z,11.05
2017-12-08T02:31:38.736Z,8.88
2017-12-08T02:32:12.736Z,8.05
2017-12-08T02:32:47.061Z,10.10
2017-12-08T02:33:21.129Z,8.07
2017-12-08T02:33:55.298Z,7.85
2017-12-08T02:34:29.291Z,10.18
2017-12-08T02:35:03.153Z,7.70
2017-12-08T02:35:37.047Z,7.32
2017-12-08T02:36:10.941Z,9.57
2017-12-08T02:36:44.873Z,9.77
2017-12-08T02:37:18.869Z,10.63
2017-12-08T02:37:52.770Z,9.63
2017-12-08T02:38:27.143Z,9.35
2017-12-08T02:39:01.301Z,8.80
2017-12-08T02:39:35.345Z,12.10
2017-12-08T02:40:09.364Z,7.72
2017-12-08T02:40:43.572Z,10.63
2017-12-08T02:41:17.540Z,7.72
2017-12-08T02:41:51.477Z,6.95
2017-12-08T02:42:25.386Z,8.85
2017-12-08T02:42:59.266Z,9.25
2017-12-08T02:43:33.206Z,11.63
2017-12-08T02:44:07.219Z,9.75
2017-12-08T02:44:41.154Z,11.77
2017-12-08T02:45:15.231Z,6.97
2017-12-08T02:45:49.112Z,9.07
2017-12-08T02:46:23.798Z,11.65
2017-12-08T02:46:57.818Z,8.30
2017-12-08T02:47:31.720Z,7.72
2017-12-08T02:48:06.724Z,7.18
2017-12-08T02:48:40.607Z,7.72
2017-12-08T02:49:14.866Z,7.45
2017-12-08T02:50:27.613Z,8.73
2017-12-08T02:51:01.644Z,11.00
2017-12-08T02:51:35.497Z,9.82
2017-12-08T02:52:09.455Z,9.98
2017-12-08T02:52:43.328Z,8.23
2017-12-08T02:53:17.221Z,9.10
2017-12-08T02:53:51.097Z,8.32
2017-12-08T02:54:25.006Z,8.60
2017-12-08T02:54:58.996Z,8.45
2017-12-08T02:55:32.903Z,6.30
2017-12-08T02:56:07.743Z,8.45
2017-12-08T02:56:41.614Z,7.18
2017-12-08T02:57:15.498Z,7.60
2017-12-08T02:57:49.405Z,7.05
2017-12-08T02:58:23.274Z,7.68
2017-12-08T02:58:57.178Z,7.93
2017-12-08T02:59:31.158Z,8.10
2017-12-08T03:00:05.123Z,9.85
2017-12-08T03:00:39.048Z,5.93
2017-12-08T03:01:12.889Z,7.60
2017-12-08T03:01:46.775Z,6.68
2017-12-08T03:02:20.691Z,6.50
2017-12-08T03:02:54.576Z,6.60
2017-12-08T03:03:28.645Z,8.10
2017-12-08T03:04:02.496Z,6.75
2017-12-08T03:04:36.413Z,8.07
2017-12-08T03:05:10.512Z,7.35
2017-12-08T03:05:44.557Z,5.93
2017-12-08T03:06:18.632Z,6.15
2017-12-08T03:06:52.503Z,7.68
2017-12-08T03:07:26.546Z,7.65
2017-12-08T03:08:00.441Z,6.70
2017-12-08T03:08:34.356Z,6.75
2017-12-08T03:09:08.213Z,6.55
2017-12-08T03:09:42.330Z,7.10
2017-12-08T03:10:16.355Z,8.13
2017-12-08T03:10:50.231Z,6.40
2017-12-08T03:11:24.135Z,8.15
2017-12-08T03:11:58.016Z,7.30
2017-12-08T03:12:31.873Z,6.65
2017-12-08T03:13:05.874Z,9.45
2017-12-08T03:13:39.803Z,7.12
2017-12-08T03:14:13.652Z,6.75
2017-12-08T03:14:47.530Z,7.80
2017-12-08T03:15:21.396Z,7.43
2017-12-08T03:15:55.282Z,6.35
2017-12-08T03:16:29.310Z,9.32
2017-12-08T03:17:03.160Z,6.62
2017-12-08T03:17:37.107Z,7.28
2017-12-08T03:18:11.010Z,9.30
2017-12-08T03:18:44.872Z,6.10
2017-12-08T03:19:18.748Z,7.45
2017-12-08T03:19:52.621Z,7.87
2017-12-08T03:20:26.562Z,6.85
2017-12-08T03:21:00.789Z,6.82
2017-12-08T03:21:34.744Z,6.50
2017-12-08T03:22:08.586Z,7.65
2017-12-08T03:22:42.480Z,7.15
2017-12-08T03:23:16.505Z,6.95
2017-12-08T03:23:50.656Z,7.70
2017-12-08T03:24:24.575Z,7.50
2017-12-08T03:24:58.628Z,6.35
2017-12-08T03:25:32.683Z,6.47
2017-12-08T03:26:06.606Z,5.60
2017-12-08T03:26:40.501Z,6.35
2017-12-08T03:27:14.368Z,7.50
2017-12-08T03:27:48.447Z,6.93
2017-12-08T03:28:22.352Z,7.18
2017-12-08T03:28:56.236Z,7.20
2017-12-08T03:29:30.151Z,6.18
2017-12-08T03:30:04.028Z,7.40
2017-12-08T03:30:37.908Z,6.37
2017-12-08T03:31:12.046Z,5.75
2017-12-08T03:31:45.972Z,6.12
2017-12-08T03:32:20.048Z,6.55
2017-12-08T03:32:53.995Z,6.80
2017-12-08T03:33:27.969Z,5.60
2017-12-08T03:34:01.882Z,6.65
2017-12-08T03:34:35.740Z,7.62
2017-12-08T03:35:09.678Z,6.65
2017-12-08T03:35:43.608Z,6.20
2017-12-08T03:36:17.811Z,6.62
2017-12-08T03:36:51.724Z,6.45
2017-12-08T03:37:25.602Z,6.70
2017-12-08T03:37:59.496Z,6.00
2017-12-08T03:38:33.468Z,6.45
2017-12-08T03:39:07.352Z,6.93
2017-12-08T03:39:41.245Z,6.95
2017-12-08T03:40:15.160Z,7.10
2017-12-08T03:40:49.079Z,6.12
2017-12-08T03:41:23.044Z,8.95
2017-12-08T03:41:56.971Z,8.85
2017-12-08T03:42:30.861Z,7.87
2017-12-08T03:43:04.767Z,5.60
2017-12-08T03:43:38.627Z,6.45
2017-12-08T03:44:12.545Z,7.05
2017-12-08T03:44:47.537Z,8.63
2017-12-08T03:45:21.521Z,6.57
2017-12-08T03:45:55.418Z,5.68
2017-12-08T03:46:29.323Z,6.07
2017-12-08T03:47:03.268Z,7.28
2017-12-08T03:47:37.116Z,6.68
2017-12-08T03:48:11.073Z,7.80
2017-12-08T03:48:45.093Z,7.95
2017-12-08T03:49:18.977Z,6.28
2017-12-08T03:49:52.927Z,6.57
2017-12-08T03:50:26.804Z,5.90
2017-12-08T03:51:00.693Z,8.00
2017-12-08T03:51:34.567Z,8.55
2017-12-08T03:52:08.480Z,6.20
2017-12-08T03:52:42.344Z,6.35
2017-12-08T03:53:16.240Z,6.20
2017-12-08T03:53:50.206Z,8.07
2017-12-08T03:54:24.144Z,9.10
2017-12-08T03:54:58.105Z,7.20
2017-12-08T03:55:32.025Z,7.18
2017-12-08T03:56:05.906Z,7.80
2017-12-08T03:56:39.799Z,6.40
2017-12-08T03:57:13.690Z,9.15
2017-12-08T03:57:47.656Z,8.25
2017-12-08T03:58:21.827Z,7.07
2017-12-08T03:58:56.216Z,5.82
2017-12-08T03:59:30.131Z,6.80
2017-12-08T04:00:03.984Z,7.37
2017-12-08T04:00:38.137Z,7.62
2017-12-08T04:01:12.108Z,8.23
2017-12-08T04:01:46.031Z,6.25
2017-12-08T04:02:20.022Z,6.72
2017-12-08T04:02:53.993Z,8.20
2017-12-08T04:03:27.846Z,7.03
2017-12-08T04:04:01.809Z,5.28
2017-12-08T04:04:35.760Z,5.70
2017-12-08T04:05:09.702Z,8.18
2017-12-08T04:05:43.598Z,9.40
2017-12-08T04:06:17.619Z,8.25
2017-12-08T04:06:51.554Z,5.78
2017-12-08T04:07:25.453Z,7.28
2017-12-08T04:07:59.326Z,6.53
2017-12-08T04:08:33.199Z,9.25
2017-12-08T04:09:07.208Z,7.50
2017-12-08T04:09:41.289Z,8.27
2017-12-08T04:10:15.206Z,10.20
2017-12-08T04:10:49.113Z,7.20
2017-12-08T04:11:22.998Z,7.00
2017-12-08T04:11:56.899Z,8.52
2017-12-08T04:12:30.813Z,10.70
2017-12-08T04:13:04.700Z,8.07
2017-12-08T04:13:38.606Z,7.45
2017-12-08T04:14:12.453Z,8.45
2017-12-08T04:14:46.495Z,6.65
2017-12-08T04:15:20.392Z,5.35
2017-12-08T04:15:54.261Z,9.60
2017-12-08T04:16:28.152Z,7.95
2017-12-08T04:17:02.135Z,6.82
2017-12-08T04:17:36.008Z,6.10
2017-12-08T04:18:09.869Z,6.35
2017-12-08T04:18:43.756Z,8.85
2017-12-08T04:19:17.861Z,9.43
2017-12-08T04:19:51.712Z,7.28
2017-12-08T04:20:25.561Z,10.02
2017-12-08T04:20:59.437Z,9.15
2017-12-08T04:21:33.313Z,8.00
2017-12-08T04:22:07.625Z,8.48
2017-12-08T04:22:41.614Z,5.72
2017-12-08T04:23:15.546Z,8.95
2017-12-08T04:23:49.485Z,9.60
2017-12-08T04:24:23.484Z,8.90
2017-12-08T04:24:57.477Z,8.15
2017-12-08T04:25:31.368Z,8.68
2017-12-08T04:26:05.297Z,7.90
2017-12-08T04:26:39.210Z,7.20
2017-12-08T04:27:13.154Z,8.20
2017-12-08T04:27:47.230Z,10.52
2017-12-08T04:28:21.173Z,7.20
2017-12-08T04:28:55.028Z,8.55
2017-12-08T04:29:28.973Z,8.38
2017-12-08T04:30:02.836Z,8.10
2017-12-08T04:30:36.830Z,7.30
2017-12-08T04:31:10.902Z,6.87
2017-12-08T04:31:44.772Z,9.23
2017-12-08T04:32:18.825Z,7.75
2017-12-08T04:32:52.784Z,7.05
2017-12-08T04:33:26.841Z,8.07
2017-12-08T04:34:00.776Z,9.95
2017-12-08T04:34:34.846Z,10.90
2017-12-08T04:35:09.045Z,8.23
2017-12-08T04:35:42.938Z,6.93
2017-12-08T04:36:16.792Z,9.88
2017-12-08T04:36:50.833Z,9.40
2017-12-08T04:37:24.765Z,7.70
2017-12-08T04:37:58.853Z,9.00
2017-12-08T04:38:32.792Z,8.50
2017-12-08T04:39:06.744Z,6.95
2017-12-08T04:39:40.777Z,6.75
2017-12-08T04:40:14.707Z,7.75
2017-12-08T04:40:48.573Z,5.90
2017-12-08T04:41:22.445Z,7.75
2017-12-08T04:41:56.323Z,5.87
2017-12-08T04:42:30.351Z,6.62
2017-12-08T04:43:04.304Z,8.93
2017-12-08T04:43:38.367Z,7.55
2017-12-08T04:44:12.386Z,7.00
2017-12-08T04:44:46.317Z,7.53
2017-12-08T04:45:20.601Z,9.82
2017-12-08T04:45:54.577Z,7.65
2017-12-08T04:46:28.443Z,11.88
2017-12-08T04:47:02.333Z,9.70
2017-12-08T04:47:36.280Z,6.00
2017-12-08T04:48:10.239Z,7.87
2017-12-08T04:48:44.346Z,9.95
2017-12-08T04:49:18.284Z,8.65
2017-12-08T04:49:52.185Z,8.27
2017-12-08T04:50:26.074Z,6.15
2017-12-08T04:51:00.032Z,8.23
2017-12-08T04:51:34.081Z,9.27
2017-12-08T04:52:07.987Z,7.57
2017-12-08T04:52:42.167Z,7.97
2017-12-08T04:53:16.223Z,9.02
2017-12-08T04:53:50.097Z,8.05
2017-12-08T04:54:24.156Z,6.40
2017-12-08T04:54:58.196Z,8.50
2017-12-08T04:55:32.114Z,12.27
2017-12-08T04:56:06.061Z,12.37
2017-12-08T04:56:39.980Z,10.98
2017-12-08T04:57:13.922Z,12.43
2017-12-08T04:57:48.311Z,7.97
2017-12-08T04:58:22.545Z,8.75
2017-12-08T04:58:56.500Z,12.07
2017-12-08T04:59:30.361Z,12.18
2017-12-08T05:00:04.463Z,8.90
2017-12-08T05:00:38.388Z,7.15
2017-12-08T05:01:12.289Z,10.32
2017-12-08T05:01:46.236Z,9.50
2017-12-08T05:02:21.182Z,8.40
2017-12-08T05:02:55.513Z,8.68
2017-12-08T05:03:29.386Z,5.00
2017-12-08T05:04:03.293Z,11.43
2017-12-08T05:04:37.262Z,9.55
2017-12-08T05:05:11.123Z,7.85
2017-12-08T05:05:45.247Z,8.77
2017-12-08T05:06:19.307Z,11.35
2017-12-08T05:06:53.295Z,6.93
2017-12-08T05:07:27.216Z,8.68
2017-12-08T05:08:01.133Z,10.38
2017-12-08T05:08:35.068Z,11.05
2017-12-08T05:09:09.038Z,9.00
2017-12-08T05:09:42.980Z,6.37
2017-12-08T05:10:16.887Z,9.50
2017-12-08T05:10:50.848Z,13.85
2017-12-08T05:11:24.745Z,7.72
2017-12-08T05:12:03.433Z,6.78
2017-12-08T05:12:37.387Z,8.70
2017-12-08T05:13:11.652Z,11.55
2017-12-08T05:13:45.703Z,11.63
2017-12-08T05:14:20.009Z,8.30
2017-12-08T05:14:53.893Z,13.02
2017-12-08T05:15:28.709Z,8.68
2017-12-08T05:16:02.620Z,9.27
2017-12-08T05:16:36.477Z,11.15
2017-12-08T05:17:10.413Z,9.68
2017-12-08T05:17:44.385Z,6.57
2017-12-08T05:18:18.515Z,7.57
2017-12-08T05:18:52.373Z,8.10
2017-12-08T05:19:26.398Z,14.70
2017-12-08T05:20:00.380Z,10.15
2017-12-08T05:20:34.313Z,11.32
2017-12-08T05:21:08.275Z,14.10
2017-12-08T05:21:42.261Z,9.13
2017-12-08T05:22:16.184Z,10.60
2017-12-08T05:22:50.114Z,15.75
2017-12-08T05:23:24.041Z,9.05
2017-12-08T05:23:58.168Z,11.60
2017-12-08T05:24:32.164Z,11.43
2017-12-08T05:25:06.107Z,7.32
2017-12-08T05:25:40.066Z,14.57
2017-12-08T05:26:14.089Z,13.82
2017-12-08T05:26:48.034Z,15.25
2017-12-08T05:27:21.885Z,10.50
2017-12-08T05:27:55.888Z,13.25
2017-12-08T05:28:29.884Z,11.10
2017-12-08T05:29:03.975Z,10.52
2017-12-08T05:29:37.884Z,10.40
2017-12-08T05:31:16.126Z,13.02
2017-12-08T05:31:50.162Z,10.95
2017-12-08T05:32:24.078Z,12.10
2017-12-08T05:32:58.153Z,13.73
2017-12-08T05:33:32.145Z,12.95
2017-12-08T05:34:06.120Z,10.25
2017-12-08T05:34:40.017Z,15.43
2017-12-08T05:35:14.264Z,11.30
2017-12-08T05:35:48.208Z,22.45
2017-12-08T05:36:22.533Z,11.10
2017-12-08T05:36:56.459Z,9.82
2017-12-08T05:37:30.341Z,17.52
2017-12-08T05:38:04.628Z,10.20
2017-12-08T05:38:38.509Z,10.55
2017-12-08T05:39:13.478Z,10.77
2017-12-08T05:39:47.418Z,8.27
2017-12-08T05:40:21.626Z,14.43
2017-12-08T05:40:55.583Z,11.32
2017-12-08T05:41:29.571Z,16.25
2017-12-08T05:42:03.618Z,11.68
2017-12-08T05:42:37.565Z,14.98
2017-12-08T05:43:11.467Z,17.50
2017-12-08T05:43:45.335Z,11.35
2017-12-08T05:44:19.434Z,12.23
2017-12-08T05:44:53.342Z,12.37
2017-12-08T05:45:27.236Z,10.85
2017-12-08T05:46:01.099Z,14.68
2017-12-08T05:46:34.966Z,22.27
2017-12-08T05:47:08.889Z,12.00
2017-12-08T05:47:42.824Z,8.75
2017-12-08T05:48:16.911Z,15.18
2017-12-08T05:48:50.796Z,15.75
2017-12-08T05:49:24.705Z,13.62
2017-12-08T05:49:58.667Z,11.93
2017-12-08T05:50:32.627Z,10.00
2017-12-08T05:51:06.698Z,10.50
2017-12-08T05:51:40.589Z,11.07
2017-12-08T05:52:14.497Z,12.82
2017-12-08T05:52:48.453Z,10.38
2017-12-08T05:53:22.552Z,15.70
2017-12-08T05:53:56.627Z,9.30
2017-12-08T05:54:30.526Z,15.90
2017-12-08T05:55:04.541Z,16.40
2017-12-08T05:55:38.636Z,11.93
2017-12-08T05:56:12.495Z,17.33
2017-12-08T05:56:46.480Z,16.67
2017-12-08T05:57:20.427Z,15.90
2017-12-08T05:57:54.364Z,11.23
2017-12-08T05:58:28.353Z,15.60
2017-12-08T05:59:02.314Z,21.55
2017-12-08T05:59:36.284Z,9.70
2017-12-08T06:00:10.202Z,11.73
2017-12-08T06:00:44.067Z,11.32
2017-12-08T06:01:18.091Z,13.48
2017-12-08T06:01:52.008Z,13.48
2017-12-08T06:02:25.947Z,10.27
2017-12-08T06:02:59.900Z,16.80
2017-12-08T06:03:33.777Z,14.93
2017-12-08T06:04:07.690Z,12.00
2017-12-08T06:04:41.819Z,11.73
2017-12-08T06:05:15.730Z,16.30
2017-12-08T06:05:49.682Z,8.50
2017-12-08T06:06:23.532Z,13.93
2017-12-08T06:06:57.459Z,8.27
2017-12-08T06:07:31.710Z,12.77
2017-12-08T06:08:05.611Z,10.23
2017-12-08T06:08:39.690Z,15.30
2017-12-08T06:09:13.599Z,13.82
2017-12-08T06:09:47.500Z,7.12
2017-12-08T06:10:22.029Z,9.95
2017-12-08T06:10:56.042Z,16.70
2017-12-08T06:11:31.643Z,12.55
2017-12-08T06:12:05.661Z,12.18
2017-12-08T06:12:39.635Z,16.70
2017-12-08T06:13:13.632Z,14.35
2017-12-08T06:13:47.501Z,15.32
2017-12-08T06:14:21.795Z,14.23
2017-12-08T06:14:55.727Z,13.60
2017-12-08T06:15:29.630Z,15.43
2017-12-08T06:16:03.533Z,10.07
2017-12-08T06:16:37.432Z,10.13
2017-12-08T06:17:11.399Z,11.65
2017-12-08T06:17:45.486Z,17.02
2017-12-08T06:18:19.373Z,10.13
2017-12-08T06:18:53.416Z,8.10
2017-12-08T06:19:27.413Z,13.93
2017-12-08T06:20:01.361Z,11.02
2017-12-08T06:20:35.263Z,15.80
2017-12-08T06:21:09.184Z,17.48
2017-12-08T06:21:43.193Z,8.85
2017-12-08T06:22:17.180Z,10.65
2017-12-08T06:22:51.197Z,12.02
2017-12-08T06:23:25.131Z,10.77
2017-12-08T06:23:59.115Z,12.60
2017-12-08T06:24:33.042Z,17.15
2017-12-08T06:25:07.054Z,13.90
2017-12-08T06:25:40.950Z,13.13
2017-12-08T06:26:14.827Z,10.60
2017-12-08T06:26:48.782Z,12.13
2017-12-08T06:27:22.812Z,11.05
2017-12-08T06:27:56.808Z,15.65
2017-12-08T06:28:30.777Z,15.18
2017-12-08T06:29:04.664Z,16.70
2017-12-08T06:29:38.593Z,16.15
2017-12-08T06:30:12.793Z,12.05
2017-12-08T06:30:46.691Z,16.98
2017-12-08T06:31:20.755Z,19.87
2017-12-08T06:31:54.814Z,14.10
2017-12-08T06:32:28.790Z,15.63
2017-12-08T06:33:02.906Z,17.58
2017-12-08T06:33:36.825Z,10.88
2017-12-08T06:34:10.777Z,13.43
2017-12-08T06:34:44.726Z,16.95
2017-12-08T06:35:18.908Z,13.90
2017-12-08T06:35:52.950Z,12.25
2017-12-08T06:36:26.961Z,10.88
2017-12-08T06:37:00.810Z,13.62
2017-12-08T06:37:34.925Z,9.75
2017-12-08T06:38:09.092Z,10.90
2017-12-08T06:38:43.852Z,19.37
2017-12-08T06:39:17.841Z,21.92
2017-12-08T06:39:51.745Z,16.85
2017-12-08T06:40:25.802Z,14.57
2017-12-08T06:40:59.688Z,17.85
2017-12-08T06:41:33.553Z,13.02
2017-12-08T06:42:07.459Z,18.25
2017-12-08T06:42:41.597Z,13.68
2017-12-08T06:43:15.479Z,15.38
2017-12-08T06:43:49.404Z,17.23
2017-12-08T06:44:23.388Z,20.08
2017-12-08T06:44:57.305Z,13.88
2017-12-08T06:45:31.247Z,9.68
2017-12-08T06:46:05.173Z,17.58
2017-12-08T06:46:39.052Z,16.30
2017-12-08T06:47:13.009Z,12.70
2017-12-08T06:47:46.944Z,13.32
2017-12-08T06:48:20.936Z,18.45
2017-12-08T06:48:54.822Z,19.23
2017-12-08T06:49:28.724Z,16.17
2017-12-08T06:50:02.693Z,9.60
2017-12-08T06:50:36.617Z,12.98
2017-12-08T06:51:10.588Z,18.58
2017-12-08T06:51:44.792Z,18.67
2017-12-08T06:52:18.940Z,17.08
2017-12-08T06:52:52.814Z,13.62
2017-12-08T06:53:26.720Z,14.35
2017-12-08T06:54:00.775Z,10.05
2017-12-08T06:54:34.736Z,13.30
2017-12-08T06:55:08.795Z,13.32
2017-12-08T06:55:42.814Z,17.83
2017-12-08T06:56:17.211Z,12.30
2017-12-08T06:56:51.120Z,13.25
2017-12-08T06:57:25.020Z,9.18
2017-12-08T06:57:59.054Z,18.25
2017-12-08T06:58:33.009Z,19.30
2017-12-08T06:59:07.146Z,10.23
2017-12-08T06:59:41.054Z,13.48
2017-12-08T07:00:14.986Z,18.17
2017-12-08T07:00:48.952Z,33.28
2017-12-08T07:01:23.663Z,16.17
2017-12-08T07:01:57.563Z,11.85
2017-12-08T07:02:31.472Z,17.65
2017-12-08T07:03:05.344Z,19.65
2017-12-08T07:03:39.198Z,12.48
2017-12-08T07:04:13.889Z,12.13
2017-12-08T07:04:47.832Z,17.10
2017-12-08T07:05:21.929Z,11.40
2017-12-08T07:05:55.842Z,18.65
2017-12-08T07:06:29.733Z,13.32
2017-12-08T07:07:03.629Z,8.60
2017-12-08T07:07:37.563Z,12.25
2017-12-08T07:08:11.665Z,13.35
2017-12-08T07:08:45.521Z,11.35
2017-12-08T07:09:19.397Z,16.80
2017-12-08T07:09:53.397Z,15.43
2017-12-08T07:10:27.346Z,9.82
2017-12-08T07:11:01.224Z,13.50
2017-12-08T07:11:35.179Z,13.80
2017-12-08T07:12:09.081Z,10.63
2017-12-08T07:12:44.032Z,20.30
2017-12-08T07:13:18.438Z,11.52
2017-12-08T07:13:52.447Z,19.50
2017-12-08T07:14:26.881Z,14.23
2017-12-08T07:15:00.750Z,15.15
2017-12-08T07:15:34.643Z,11.02
2017-12-08T07:16:08.708Z,21.42
2017-12-08T07:16:42.798Z,13.55
2017-12-08T07:17:16.701Z,11.25
2017-12-08T07:17:50.939Z,14.15
2017-12-08T07:18:25.010Z,22.05
2017-12-08T07:18:58.944Z,11.80
2017-12-08T07:19:32.829Z,17.30
2017-12-08T07:20:06.827Z,14.38
2017-12-08T07:20:40.774Z,12.65
2017-12-08T07:21:14.624Z,15.43
2017-12-08T07:21:48.597Z,23.55
2017-12-08T07:22:22.656Z,11.52
2017-12-08T07:22:56.553Z,20.48
2017-12-08T07:23:30.449Z,18.87
2017-12-08T07:24:04.324Z,9.65
2017-12-08T07:24:38.187Z,14.30
2017-12-08T07:25:12.129Z,15.65
2017-12-08T07:25:46.086Z,11.50
2017-12-08T07:26:19.970Z,16.73
2017-12-08T07:26:53.866Z,11.75